createdAt,value
2023-12-10T00:01:49.005Z,98563.44
2023-12-10T00:04:16.913Z,98557.34
2023-12-10T00:06:46.335Z,98566.38
2023-12-10T00:09:14.467Z,98565.06
2023-12-10T00:11:44.029Z,98562.25
2023-12-10T00:14:14.507Z,98557.84
2023-12-10T00:16:44.996Z,98564.94
2023-12-10T00:19:14.164Z,98563.63
2023-12-10T00:21:45.704Z,98557.38
2023-12-10T00:24:13.415Z,98564.88
2023-12-10T00:26:42.553Z,98558.38
2023-12-10T00:29:12.553Z,98558.56
2023-12-10T00:31:47.930Z,98563.75
2023-12-10T00:34:18.821Z,98562.19
2023-12-10T00:36:47.366Z,98575.50
2023-12-10T00:39:25.665Z,98568.91
2023-12-10T00:41:53.577Z,98570.72
2023-12-10T00:44:21.651Z,98572.06
2023-12-10T00:46:49.890Z,98574.75
2023-12-10T00:49:18.447Z,98584.03
2023-12-10T00:51:47.081Z,98587.81
2023-12-10T00:54:18.040Z,98587.25
2023-12-10T00:56:45.997Z,98595.03
2023-12-10T00:59:14.127Z,98595.16
2023-12-10T01:01:43.331Z,98597.50
2023-12-10T01:04:11.158Z,98588.44
2023-12-10T01:06:39.373Z,98585.38
2023-12-10T01:09:07.598Z,98584.41
2023-12-10T01:11:34.853Z,98599.56
2023-12-10T01:14:04.207Z,98596.28
2023-12-10T01:16:32.130Z,98599.56
2023-12-10T01:18:59.772Z,98609.81
2023-12-10T01:21:26.950Z,98611.69
2023-12-10T01:23:57.784Z,98601.50
2023-12-10T01:26:25.801Z,98606.78
2023-12-10T01:28:53.672Z,98608.22
2023-12-10T01:31:20.688Z,98614.22
2023-12-10T01:33:49.413Z,98618.50
2023-12-10T01:36:26.761Z,98618.25
2023-12-10T01:38:54.728Z,98625.31
2023-12-10T01:41:24.760Z,98625.94
2023-12-10T01:43:54.427Z,98631.69
2023-12-10T01:46:23.488Z,98637.56
2023-12-10T01:48:54.958Z,98639.00
2023-12-10T01:51:24.824Z,98632.41
2023-12-10T01:53:54.230Z,98640.00
2023-12-10T01:56:22.950Z,98648.28
2023-12-10T01:58:50.926Z,98640.22
2023-12-10T02:01:22.419Z,98649.00
2023-12-10T02:03:51.679Z,98648.63
2023-12-10T02:06:20.772Z,98654.25
2023-12-10T02:08:50.684Z,98658.28
2023-12-10T02:11:18.627Z,98659.91
2023-12-10T02:13:47.283Z,98664.28
2023-12-10T02:16:14.966Z,98660.00
2023-12-10T02:18:44.071Z,98654.53
2023-12-10T02:21:13.222Z,98661.97
2023-12-10T02:23:48.965Z,98660.63
2023-12-10T02:26:16.780Z,98669.03
2023-12-10T02:28:45.474Z,98665.38
2023-12-10T02:31:13.383Z,98670.75
2023-12-10T02:33:44.684Z,98658.19
2023-12-10T02:36:12.636Z,98677.97
2023-12-10T02:38:40.608Z,98674.41
2023-12-10T02:41:08.610Z,98675.88
2023-12-10T02:43:40.080Z,98677.97
2023-12-10T02:46:08.801Z,98669.16
2023-12-10T02:48:36.676Z,98673.34
2023-12-10T02:51:06.810Z,98664.16
2023-12-10T02:53:34.996Z,98666.84
2023-12-10T02:56:03.228Z,98661.47
2023-12-10T02:58:31.499Z,98656.72
2023-12-10T03:01:00.413Z,98671.38
2023-12-10T03:03:30.314Z,98663.66
2023-12-10T03:05:59.857Z,98663.06
2023-12-10T03:08:28.203Z,98662.59
2023-12-10T03:10:56.405Z,98654.34
2023-12-10T03:13:24.847Z,98650.09
2023-12-10T03:15:54.640Z,98660.38
2023-12-10T03:18:22.975Z,98659.50
2023-12-10T03:20:51.225Z,98653.88
2023-12-10T03:23:20.140Z,98659.97
2023-12-10T03:25:50.234Z,98664.88
2023-12-10T03:28:19.821Z,98669.16
2023-12-10T03:30:48.631Z,98651.41
2023-12-10T03:33:28.772Z,98646.53
2023-12-10T03:35:56.918Z,98647.72
2023-12-10T03:38:25.793Z,98641.13
2023-12-10T03:40:53.902Z,98649.44
2023-12-10T03:43:21.978Z,98647.00
2023-12-10T03:45:50.713Z,98657.91
2023-12-10T03:48:20.233Z,98655.84
2023-12-10T03:50:50.224Z,98645.78
2023-12-10T03:53:20.086Z,98649.19
2023-12-10T03:55:47.796Z,98637.13
2023-12-10T03:58:16.285Z,98638.19
2023-12-10T04:00:44.846Z,98626.19
2023-12-10T04:03:13.451Z,98627.44
2023-12-10T04:05:43.600Z,98628.63
2023-12-10T04:08:12.308Z,98636.09
2023-12-10T04:10:40.361Z,98638.56
2023-12-10T04:13:09.642Z,98648.16
2023-12-10T12:23:18.337Z,98462.59
2023-12-10T12:25:45.861Z,98464.41
2023-12-10T12:28:13.959Z,98463.97
2023-12-10T12:30:41.228Z,98470.50
2023-12-10T12:33:08.735Z,98461.25
2023-12-10T12:35:35.968Z,98468.25
2023-12-10T12:38:04.395Z,98479.09
2023-12-10T12:40:32.380Z,98475.00
2023-12-10T12:43:00.475Z,98479.25
2023-12-10T12:45:27.630Z,98484.38
2023-12-10T12:47:54.863Z,98477.25
2023-12-10T12:50:22.249Z,98472.66
2023-12-10T12:52:53.966Z,98469.38
2023-12-10T12:55:22.995Z,98435.31
2023-12-10T12:57:51.639Z,98426.91
2023-12-10T13:00:19.777Z,98428.06
2023-12-10T13:02:49.994Z,98454.41
2023-12-10T13:05:21.566Z,98477.06
2023-12-10T13:07:49.343Z,98466.53
2023-12-10T13:10:16.847Z,98472.66
2023-12-10T13:12:44.771Z,98485.66
2023-12-10T13:15:11.931Z,98494.69
2023-12-10T13:17:40.235Z,98505.63
2023-12-10T13:20:08.537Z,98507.13
2023-12-10T13:22:35.428Z,98497.13
2023-12-10T13:25:04.688Z,98496.75
2023-12-10T13:27:32.122Z,98502.28
2023-12-10T13:32:43.263Z,98514.69
2023-12-10T13:35:12.705Z,98518.00
2023-12-10T13:37:40.539Z,98522.56
2023-12-10T13:40:13.869Z,98528.16
2023-12-10T16:57:12.490Z,98424.03
2023-12-10T16:59:42.338Z,98417.69
2023-12-10T17:02:09.238Z,98420.53
2023-12-10T17:04:36.578Z,98417.53
2023-12-10T17:07:03.861Z,98419.13
2023-12-10T17:09:30.944Z,98421.81
2023-12-10T17:11:57.869Z,98416.72
2023-12-10T17:14:31.750Z,98424.81
2023-12-10T17:16:58.581Z,98423.72
2023-12-10T17:19:25.646Z,98418.59
2023-12-10T17:21:53.860Z,98426.81
2023-12-10T17:24:21.188Z,98427.22
2023-12-10T17:26:56.935Z,98433.91
2023-12-10T17:29:23.708Z,98432.63
2023-12-10T17:31:50.685Z,98435.19
2023-12-10T17:34:17.792Z,98425.38
2023-12-10T17:36:44.838Z,98433.91
2023-12-10T17:39:11.886Z,98431.09
2023-12-10T17:41:38.852Z,98430.22
2023-12-10T17:44:11.392Z,98436.00
2023-12-10T17:46:38.625Z,98423.28
2023-12-10T17:49:06.732Z,98430.50
2023-12-10T17:51:43.966Z,98435.91
2023-12-10T17:54:17.270Z,98437.59
2023-12-10T17:56:44.769Z,98432.78
2023-12-10T17:59:18.486Z,98430.78
2023-12-10T18:02:02.068Z,98436.78
2023-12-10T18:04:44.461Z,98427.38
2023-12-10T18:07:38.356Z,98441.41
2023-12-10T18:10:07.339Z,98435.31
2023-12-10T18:12:42.632Z,98429.78
2023-12-10T18:15:13.586Z,98423.22
2023-12-10T18:17:40.555Z,98433.03
2023-12-10T18:20:07.986Z,98422.81
2023-12-10T18:22:41.158Z,98417.22
2023-12-10T18:28:04.699Z,98416.00
2023-12-10T23:12:17.454Z,98404.66
2023-12-10T23:14:44.257Z,98417.69
2023-12-10T23:17:11.065Z,98433.63
2023-12-10T23:19:37.999Z,98427.78
2023-12-10T23:22:05.167Z,98436.88
2023-12-10T23:24:32.079Z,98445.81
2023-12-10T23:26:59.318Z,98445.25
2023-12-10T23:29:26.393Z,98451.94
2023-12-10T23:31:53.231Z,98459.78
2023-12-10T23:34:20.034Z,98456.91
2023-12-10T23:36:47.311Z,98463.00
2023-12-10T23:39:15.207Z,98453.09
2023-12-10T23:41:41.989Z,98460.75
2023-12-10T23:44:10.725Z,98470.56
2023-12-10T23:46:40.472Z,98466.16
2023-12-10T23:49:10.973Z,98468.56
2023-12-10T23:51:40.133Z,98469.13
2023-12-10T23:54:08.333Z,98482.91
2023-12-10T23:56:35.384Z,98477.94
2023-12-10T23:59:03.352Z,98472.41
